sensor_id;sensor_type;location;lat;lon;timestamp;pressure;altitude;pressure_sealevel;temperature;humidity
71976;BME280;68326;52.124;5.424;2024-02-23T00:02:12;98643.56;;;6.82;87.23
71976;BME280;68326;52.124;5.424;2024-02-23T00:04:39;98643.78;;;6.79;87.25
71976;BME280;68326;52.124;5.424;2024-02-23T00:07:05;98649.88;;;6.78;87.21
71976;BME280;68326;52.124;5.424;2024-02-23T00:09:32;98646.03;;;6.84;87.48
71976;BME280;68326;52.124;5.424;2024-02-23T00:11:58;98642.19;;;6.89;86.55
71976;BME280;68326;52.124;5.424;2024-02-23T00:14:25;98650.25;;;6.98;86.88
71976;BME280;68326;52.124;5.424;2024-02-23T00:16:52;98655.31;;;6.99;86.20
71976;BME280;68326;52.124;5.424;2024-02-23T00:19:18;98661.59;;;7.08;86.75
71976;BME280;68326;52.124;5.424;2024-02-23T00:21:46;98660.19;;;7.15;86.26
71976;BME280;68326;52.124;5.424;2024-02-23T00:24:16;98661.25;;;7.12;86.85
71976;BME280;68326;52.124;5.424;2024-02-23T00:26:43;98660.31;;;7.13;86.51
71976;BME280;68326;52.124;5.424;2024-02-23T00:29:10;98669.50;;;7.18;86.79
71976;BME280;68326;52.124;5.424;2024-02-23T00:31:38;98669.59;;;7.16;87.27
71976;BME280;68326;52.124;5.424;2024-02-23T00:34:07;98665.03;;;7.20;87.45
71976;BME280;68326;52.124;5.424;2024-02-23T00:36:41;98674.34;;;7.22;87.32
71976;BME280;68326;52.124;5.424;2024-02-23T00:39:08;98677.78;;;7.23;88.00
71976;BME280;68326;52.124;5.424;2024-02-23T00:41:35;98686.00;;;7.28;87.99
71976;BME280;68326;52.124;5.424;2024-02-23T00:44:03;98675.91;;;7.25;88.55
71976;BME280;68326;52.124;5.424;2024-02-23T00:46:29;98677.09;;;7.32;88.38
71976;BME280;68326;52.124;5.424;2024-02-23T00:48:56;98693.25;;;7.35;88.99
71976;BME280;68326;52.124;5.424;2024-02-23T00:51:23;98686.19;;;7.38;89.15
71976;BME280;68326;52.124;5.424;2024-02-23T00:53:49;98691.94;;;7.41;88.88
71976;BME280;68326;52.124;5.424;2024-02-23T00:56:16;98698.56;;;7.45;88.16
71976;BME280;68326;52.124;5.424;2024-02-23T00:58:42;98711.00;;;7.40;87.97
71976;BME280;68326;52.124;5.424;2024-02-23T01:01:09;98710.19;;;7.40;87.56
71976;BME280;68326;52.124;5.424;2024-02-23T01:03:35;98707.00;;;7.36;86.90
71976;BME280;68326;52.124;5.424;2024-02-23T01:06:02;98703.44;;;7.37;87.56
71976;BME280;68326;52.124;5.424;2024-02-23T01:08:29;98731.59;;;7.42;87.05
71976;BME280;68326;52.124;5.424;2024-02-23T01:10:55;98716.13;;;7.29;87.54
71976;BME280;68326;52.124;5.424;2024-02-23T01:13:22;98747.47;;;7.24;87.75
71976;BME280;68326;52.124;5.424;2024-02-23T01:15:48;98760.06;;;7.05;86.88
71976;BME280;68326;52.124;5.424;2024-02-23T01:18:15;98751.50;;;6.91;86.22
71976;BME280;68326;52.124;5.424;2024-02-23T01:20:42;98744.78;;;6.89;85.27
71976;BME280;68326;52.124;5.424;2024-02-23T01:23:08;98750.06;;;6.87;85.17
71976;BME280;68326;52.124;5.424;2024-02-23T01:25:35;98737.53;;;6.81;84.46
71976;BME280;68326;52.124;5.424;2024-02-23T01:28:02;98751.41;;;6.80;83.29
71976;BME280;68326;52.124;5.424;2024-02-23T01:30:29;98743.69;;;6.67;83.04
71976;BME280;68326;52.124;5.424;2024-02-23T01:32:56;98764.34;;;6.80;83.23
71976;BME280;68326;52.124;5.424;2024-02-23T01:35:22;98776.13;;;6.84;83.71
71976;BME280;68326;52.124;5.424;2024-02-23T01:37:49;98783.34;;;6.79;83.68
71976;BME280;68326;52.124;5.424;2024-02-23T01:40:16;98791.34;;;6.76;84.30
71976;BME280;68326;52.124;5.424;2024-02-23T01:42:42;98769.63;;;6.79;84.21
71976;BME280;68326;52.124;5.424;2024-02-23T01:45:09;98767.34;;;6.74;85.66
71976;BME280;68326;52.124;5.424;2024-02-23T01:47:35;98777.69;;;6.61;86.08
71976;BME280;68326;52.124;5.424;2024-02-23T01:50:02;98777.38;;;6.66;87.60
71976;BME280;68326;52.124;5.424;2024-02-23T01:52:29;98789.03;;;6.71;87.41
71976;BME280;68326;52.124;5.424;2024-02-23T01:54:56;98804.13;;;6.78;88.25
71976;BME280;68326;52.124;5.424;2024-02-23T01:57:23;98799.28;;;6.86;88.67
71976;BME280;68326;52.124;5.424;2024-02-23T02:00:11;98799.06;;;6.89;88.69
71976;BME280;68326;52.124;5.424;2024-02-23T02:02:41;98797.22;;;6.91;88.28
71976;BME280;68326;52.124;5.424;2024-02-23T02:05:08;98799.56;;;6.94;88.28
71976;BME280;68326;52.124;5.424;2024-02-23T02:07:35;98809.28;;;6.90;88.37
71976;BME280;68326;52.124;5.424;2024-02-23T02:10:02;98808.38;;;6.91;88.50
71976;BME280;68326;52.124;5.424;2024-02-23T02:12:31;98820.25;;;6.94;88.42
71976;BME280;68326;52.124;5.424;2024-02-23T02:14:57;98812.81;;;6.89;88.29
71976;BME280;68326;52.124;5.424;2024-02-23T02:17:25;98821.94;;;6.95;88.45
71976;BME280;68326;52.124;5.424;2024-02-23T02:19:52;98817.28;;;6.87;89.10
71976;BME280;68326;52.124;5.424;2024-02-23T02:22:19;98810.44;;;6.86;88.93
71976;BME280;68326;52.124;5.424;2024-02-23T02:24:45;98813.75;;;6.88;88.28
71976;BME280;68326;52.124;5.424;2024-02-23T02:27:14;98808.69;;;6.87;88.54
71976;BME280;68326;52.124;5.424;2024-02-23T02:29:41;98808.47;;;6.77;88.48
71976;BME280;68326;52.124;5.424;2024-02-23T02:32:07;98821.63;;;6.74;89.05
71976;BME280;68326;52.124;5.424;2024-02-23T02:34:35;98818.81;;;6.77;88.66
71976;BME280;68326;52.124;5.424;2024-02-23T02:37:01;98809.31;;;6.78;88.40
71976;BME280;68326;52.124;5.424;2024-02-23T02:39:28;98814.47;;;6.78;88.16
71976;BME280;68326;52.124;5.424;2024-02-23T02:41:54;98821.31;;;6.79;87.91
71976;BME280;68326;52.124;5.424;2024-02-23T02:44:22;98817.59;;;6.70;87.29
71976;BME280;68326;52.124;5.424;2024-02-23T02:46:48;98819.94;;;6.73;87.39
71976;BME280;68326;52.124;5.424;2024-02-23T02:49:15;98823.34;;;6.73;87.57
71976;BME280;68326;52.124;5.424;2024-02-23T02:51:42;98830.09;;;6.76;87.06
71976;BME280;68326;52.124;5.424;2024-02-23T02:54:08;98836.19;;;6.75;86.91
71976;BME280;68326;52.124;5.424;2024-02-23T02:56:35;98835.38;;;6.74;86.96
71976;BME280;68326;52.124;5.424;2024-02-23T02:59:01;98836.00;;;6.78;86.84
71976;BME280;68326;52.124;5.424;2024-02-23T03:01:28;98827.41;;;6.78;86.35
71976;BME280;68326;52.124;5.424;2024-02-23T03:03:54;98836.19;;;6.75;86.20
71976;BME280;68326;52.124;5.424;2024-02-23T03:06:21;98832.88;;;6.73;86.14
71976;BME280;68326;52.124;5.424;2024-02-23T03:08:47;98829.25;;;6.76;86.25
71976;BME280;68326;52.124;5.424;2024-02-23T03:11:14;98839.41;;;6.66;85.90
71976;BME280;68326;52.124;5.424;2024-02-23T03:13:40;98839.59;;;6.63;86.90
71976;BME280;68326;52.124;5.424;2024-02-23T03:16:14;98862.84;;;6.63;86.03
71976;BME280;68326;52.124;5.424;2024-02-23T03:18:41;98851.38;;;6.67;86.58
71976;BME280;68326;52.124;5.424;2024-02-23T03:21:07;98859.97;;;6.67;85.73
71976;BME280;68326;52.124;5.424;2024-02-23T03:23:36;98852.63;;;6.61;86.36
71976;BME280;68326;52.124;5.424;2024-02-23T03:26:03;98856.03;;;6.62;86.74
71976;BME280;68326;52.124;5.424;2024-02-23T03:28:30;98857.16;;;6.58;85.72
71976;BME280;68326;52.124;5.424;2024-02-23T03:30:56;98854.06;;;6.52;85.62
71976;BME280;68326;52.124;5.424;2024-02-23T03:33:22;98850.44;;;6.55;85.80
71976;BME280;68326;52.124;5.424;2024-02-23T03:35:49;98852.09;;;6.56;86.15
71976;BME280;68326;52.124;5.424;2024-02-23T03:38:15;98864.91;;;6.58;85.53
71976;BME280;68326;52.124;5.424;2024-02-23T03:40:42;98869.44;;;6.54;85.79
71976;BME280;68326;52.124;5.424;2024-02-23T03:43:09;98860.16;;;6.51;85.90
71976;BME280;68326;52.124;5.424;2024-02-23T03:45:35;98875.94;;;6.47;85.72
71976;BME280;68326;52.124;5.424;2024-02-23T03:48:03;98874.91;;;6.49;86.05
71976;BME280;68326;52.124;5.424;2024-02-23T03:50:30;98882.16;;;6.44;86.02
71976;BME280;68326;52.124;5.424;2024-02-23T03:52:57;98877.50;;;6.49;85.92
71976;BME280;68326;52.124;5.424;2024-02-23T03:55:23;98882.75;;;6.48;86.37
71976;BME280;68326;52.124;5.424;2024-02-23T03:57:50;98885.91;;;6.53;86.10
71976;BME280;68326;52.124;5.424;2024-02-23T04:00:17;98878.13;;;6.53;85.57
71976;BME280;68326;52.124;5.424;2024-02-23T04:02:43;98884.34;;;6.50;85.88
71976;BME280;68326;52.124;5.424;2024-02-23T04:05:10;98883.72;;;6.47;86.10
71976;BME280;68326;52.124;5.424;2024-02-23T04:07:36;98874.91;;;6.49;86.06
71976;BME280;68326;52.124;5.424;2024-02-23T04:10:03;98881.03;;;6.48;86.44
71976;BME280;68326;52.124;5.424;2024-02-23T04:12:31;98900.25;;;6.44;86.38
71976;BME280;68326;52.124;5.424;2024-02-23T04:14:57;98898.47;;;6.45;86.26
71976;BME280;68326;52.124;5.424;2024-02-23T04:17:24;98884.31;;;6.38;86.56
71976;BME280;68326;52.124;5.424;2024-02-23T04:19:50;98897.22;;;6.38;86.15
71976;BME280;68326;52.124;5.424;2024-02-23T04:22:17;98895.56;;;6.37;86.71
71976;BME280;68326;52.124;5.424;2024-02-23T04:24:43;98897.72;;;6.30;86.63
71976;BME280;68326;52.124;5.424;2024-02-23T04:27:10;98904.44;;;6.32;86.24
71976;BME280;68326;52.124;5.424;2024-02-23T04:29:36;98894.31;;;6.29;86.58
71976;BME280;68326;52.124;5.424;2024-02-23T04:32:03;98903.69;;;6.30;86.57
71976;BME280;68326;52.124;5.424;2024-02-23T04:34:31;98908.94;;;6.29;86.33
71976;BME280;68326;52.124;5.424;2024-02-23T04:36:57;98902.22;;;6.26;86.61
71976;BME280;68326;52.124;5.424;2024-02-23T04:39:24;98903.19;;;6.25;86.60
71976;BME280;68326;52.124;5.424;2024-02-23T04:41:50;98914.41;;;6.24;86.58
71976;BME280;68326;52.124;5.424;2024-02-23T04:44:17;98909.97;;;6.26;86.72
71976;BME280;68326;52.124;5.424;2024-02-23T04:46:43;98920.44;;;6.25;86.48
71976;BME280;68326;52.124;5.424;2024-02-23T04:49:10;98923.03;;;6.25;86.63
71976;BME280;68326;52.124;5.424;2024-02-23T04:51:38;98923.94;;;6.24;86.32
71976;BME280;68326;52.124;5.424;2024-02-23T04:54:05;98925.78;;;6.22;86.32
71976;BME280;68326;52.124;5.424;2024-02-23T04:56:32;98917.72;;;6.26;86.71
71976;BME280;68326;52.124;5.424;2024-02-23T04:58:59;98927.88;;;6.29;86.94
71976;BME280;68326;52.124;5.424;2024-02-23T05:01:26;98919.97;;;6.18;87.20
71976;BME280;68326;52.124;5.424;2024-02-23T05:03:53;98922.72;;;6.29;87.08
71976;BME280;68326;52.124;5.424;2024-02-23T05:06:19;98933.78;;;6.31;87.22
71976;BME280;68326;52.124;5.424;2024-02-23T05:08:46;98927.69;;;6.32;86.99
71976;BME280;68326;52.124;5.424;2024-02-23T05:11:14;98931.28;;;6.30;87.21
71976;BME280;68326;52.124;5.424;2024-02-23T05:13:41;98926.94;;;6.30;86.79
71976;BME280;68326;52.124;5.424;2024-02-23T05:16:08;98922.84;;;6.41;87.10
71976;BME280;68326;52.124;5.424;2024-02-23T05:18:34;98919.22;;;6.43;86.75
71976;BME280;68326;52.124;5.424;2024-02-23T05:21:01;98920.28;;;6.41;86.99
71976;BME280;68326;52.124;5.424;2024-02-23T05:23:28;98932.38;;;6.40;87.09
71976;BME280;68326;52.124;5.424;2024-02-23T05:25:54;98921.91;;;6.42;86.81
71976;BME280;68326;52.124;5.424;2024-02-23T05:28:21;98923.38;;;6.46;86.90
71976;BME280;68326;52.124;5.424;2024-02-23T05:30:47;98918.94;;;6.48;86.80
71976;BME280;68326;52.124;5.424;2024-02-23T05:33:14;98930.00;;;6.50;86.62
71976;BME280;68326;52.124;5.424;2024-02-23T05:35:40;98930.94;;;6.49;86.36
71976;BME280;68326;52.124;5.424;2024-02-23T05:38:07;98924.66;;;6.53;86.28
71976;BME280;68326;52.124;5.424;2024-02-23T05:40:34;98917.50;;;6.57;85.94
71976;BME280;68326;52.124;5.424;2024-02-23T05:43:00;98928.69;;;6.57;86.32
71976;BME280;68326;52.124;5.424;2024-02-23T05:45:27;98924.34;;;6.58;86.05
71976;BME280;68326;52.124;5.424;2024-02-23T05:47:53;98926.94;;;6.58;85.79
71976;BME280;68326;52.124;5.424;2024-02-23T05:50:20;98921.69;;;6.59;86.00
71976;BME280;68326;52.124;5.424;2024-02-23T05:52:46;98934.38;;;6.62;85.91
71976;BME280;68326;52.124;5.424;2024-02-23T05:55:13;98918.97;;;6.61;86.17
71976;BME280;68326;52.124;5.424;2024-02-23T05:57:40;98923.94;;;6.64;85.71
71976;BME280;68326;52.124;5.424;2024-02-23T06:00:07;98922.09;;;6.66;85.15
71976;BME280;68326;52.124;5.424;2024-02-23T06:02:33;98920.34;;;6.66;85.46
71976;BME280;68326;52.124;5.424;2024-02-23T06:05:00;98919.41;;;6.67;85.58
71976;BME280;68326;52.124;5.424;2024-02-23T06:07:27;98920.34;;;6.66;85.57
71976;BME280;68326;52.124;5.424;2024-02-23T06:09:56;98921.78;;;6.70;85.20
71976;BME280;68326;52.124;5.424;2024-02-23T06:12:23;98918.16;;;6.73;85.24
71976;BME280;68326;52.124;5.424;2024-02-23T06:14:50;98923.44;;;6.71;85.00
71976;BME280;68326;52.124;5.424;2024-02-23T06:17:17;98926.88;;;6.72;84.62
71976;BME280;68326;52.124;5.424;2024-02-23T06:19:44;98924.81;;;6.77;84.62
71976;BME280;68326;52.124;5.424;2024-02-23T06:22:11;98930.69;;;6.79;84.64
71976;BME280;68326;52.124;5.424;2024-02-23T06:24:38;98927.06;;;6.82;84.60
71976;BME280;68326;52.124;5.424;2024-02-23T06:27:05;98931.13;;;6.86;84.21
71976;BME280;68326;52.124;5.424;2024-02-23T06:29:31;98926.25;;;6.81;83.63
71976;BME280;68326;52.124;5.424;2024-02-23T06:31:58;98926.88;;;6.85;83.64
71976;BME280;68326;52.124;5.424;2024-02-23T06:34:25;98939.41;;;6.91;83.42
71976;BME280;68326;52.124;5.424;2024-02-23T06:36:51;98934.75;;;6.96;82.93
71976;BME280;68326;52.124;5.424;2024-02-23T06:39:18;98934.97;;;6.93;82.95
71976;BME280;68326;52.124;5.424;2024-02-23T06:41:46;98941.59;;;6.97;82.73
71976;BME280;68326;52.124;5.424;2024-02-23T06:44:13;98951.09;;;6.97;82.30
71976;BME280;68326;52.124;5.424;2024-02-23T06:46:39;98942.03;;;7.04;82.11
71976;BME280;68326;52.124;5.424;2024-02-23T06:49:07;98942.94;;;7.03;81.23
71976;BME280;68326;52.124;5.424;2024-02-23T06:51:33;98940.88;;;7.08;81.89
71976;BME280;68326;52.124;5.424;2024-02-23T06:54:00;98947.78;;;7.07;81.65
71976;BME280;68326;52.124;5.424;2024-02-23T06:56:26;98950.91;;;7.12;82.22
71976;BME280;68326;52.124;5.424;2024-02-23T06:58:53;98952.56;;;7.13;81.55
71976;BME280;68326;52.124;5.424;2024-02-23T07:01:20;98938.91;;;7.11;81.04
71976;BME280;68326;52.124;5.424;2024-02-23T07:03:46;98932.59;;;7.15;81.53
71976;BME280;68326;52.124;5.424;2024-02-23T07:06:15;98946.16;;;7.19;81.44
71976;BME280;68326;52.124;5.424;2024-02-23T07:08:45;98948.94;;;7.16;81.24
71976;BME280;68326;52.124;5.424;2024-02-23T07:11:12;98938.81;;;7.13;80.65
71976;BME280;68326;52.124;5.424;2024-02-23T07:13:42;98940.91;;;7.21;80.83
71976;BME280;68326;52.124;5.424;2024-02-23T07:16:09;98938.19;;;7.22;80.64
71976;BME280;68326;52.124;5.424;2024-02-23T07:18:36;98950.94;;;7.25;80.40
71976;BME280;68326;52.124;5.424;2024-02-23T07:21:02;98945.13;;;7.22;80.47
71976;BME280;68326;52.124;5.424;2024-02-23T07:23:29;98948.25;;;7.27;80.66
71976;BME280;68326;52.124;5.424;2024-02-23T07:25:56;98945.22;;;7.33;79.97
71976;BME280;68326;52.124;5.424;2024-02-23T07:28:22;98945.03;;;7.36;80.17
71976;BME280;68326;52.124;5.424;2024-02-23T07:30:49;98941.91;;;7.31;79.61
71976;BME280;68326;52.124;5.424;2024-02-23T07:33:16;98948.53;;;7.35;80.16
71976;BME280;68326;52.124;5.424;2024-02-23T07:35:42;98936.22;;;7.39;80.13
71976;BME280;68326;52.124;5.424;2024-02-23T07:38:09;98940.56;;;7.38;79.66
71976;BME280;68326;52.124;5.424;2024-02-23T07:40:36;98932.91;;;7.37;79.94
71976;BME280;68326;52.124;5.424;2024-02-23T07:43:03;98936.94;;;7.41;79.85
71976;BME280;68326;52.124;5.424;2024-02-23T07:45:29;98929.81;;;7.44;79.88
71976;BME280;68326;52.124;5.424;2024-02-23T07:47:56;98918.59;;;7.44;79.36
71976;BME280;68326;52.124;5.424;2024-02-23T07:50:22;98921.63;;;7.50;79.22
71976;BME280;68326;52.124;5.424;2024-02-23T07:52:49;98920.69;;;7.51;79.42
71976;BME280;68326;52.124;5.424;2024-02-23T07:55:16;98913.75;;;7.52;78.99
71976;BME280;68326;52.124;5.424;2024-02-23T07:57:43;98912.28;;;7.61;79.14
71976;BME280;68326;52.124;5.424;2024-02-23T08:00:10;98923.66;;;7.58;78.74
71976;BME280;68326;52.124;5.424;2024-02-23T08:02:37;98921.22;;;7.57;78.21
71976;BME280;68326;52.124;5.424;2024-02-23T08:05:04;98904.50;;;7.61;78.04
71976;BME280;68326;52.124;5.424;2024-02-23T08:07:30;98911.03;;;7.66;77.84
71976;BME280;68326;52.124;5.424;2024-02-23T08:09:57;98910.22;;;7.66;77.87
71976;BME280;68326;52.124;5.424;2024-02-23T08:12:24;98906.19;;;7.62;77.68
71976;BME280;68326;52.124;5.424;2024-02-23T08:14:51;98916.44;;;7.50;76.98
71976;BME280;68326;52.124;5.424;2024-02-23T08:17:19;98898.00;;;7.55;77.12
71976;BME280;68326;52.124;5.424;2024-02-23T08:19:46;98916.72;;;7.59;76.87
71976;BME280;68326;52.124;5.424;2024-02-23T08:22:13;98901.81;;;7.62;77.00
71976;BME280;68326;52.124;5.424;2024-02-23T08:24:40;98895.41;;;7.68;77.39
71976;BME280;68326;52.124;5.424;2024-02-23T08:27:06;98899.84;;;7.66;76.79
71976;BME280;68326;52.124;5.424;2024-02-23T08:29:33;98901.91;;;7.61;76.66
71976;BME280;68326;52.124;5.424;2024-02-23T08:31:59;98895.41;;;7.68;77.54
71976;BME280;68326;52.124;5.424;2024-02-23T08:34:26;98899.84;;;7.66;77.19
71976;BME280;68326;52.124;5.424;2024-02-23T08:36:52;98885.47;;;7.62;77.10
71976;BME280;68326;52.124;5.424;2024-02-23T08:39:19;98886.19;;;7.64;76.30
71976;BME280;68326;52.124;5.424;2024-02-23T08:41:48;98891.38;;;7.64;77.20
71976;BME280;68326;52.124;5.424;2024-02-23T08:44:15;98895.41;;;7.68;77.62
71976;BME280;68326;52.124;5.424;2024-02-23T08:46:41;98879.16;;;7.66;76.97
71976;BME280;68326;52.124;5.424;2024-02-23T08:49:08;98878.44;;;7.64;76.69
71976;BME280;68326;52.124;5.424;2024-02-23T08:51:34;98871.88;;;7.71;77.19
71976;BME280;68326;52.124;5.424;2024-02-23T08:54:01;98881.50;;;7.69;76.77
71976;BME280;68326;52.124;5.424;2024-02-23T08:56:30;98880.50;;;7.71;77.60
71976;BME280;68326;52.124;5.424;2024-02-23T08:58:58;98892.81;;;7.68;77.43
71976;BME280;68326;52.124;5.424;2024-02-23T09:01:25;98892.59;;;7.71;77.63
71976;BME280;68326;52.124;5.424;2024-02-23T09:03:51;98879.25;;;7.64;77.81
71976;BME280;68326;52.124;5.424;2024-02-23T09:06:18;98888.06;;;7.62;77.57
71976;BME280;68326;52.124;5.424;2024-02-23T09:08:46;98889.69;;;7.63;77.31
71976;BME280;68326;52.124;5.424;2024-02-23T09:11:12;98892.72;;;7.69;77.04
71976;BME280;68326;52.124;5.424;2024-02-23T09:13:41;98904.28;;;7.76;78.19
71976;BME280;68326;52.124;5.424;2024-02-23T09:16:08;98911.56;;;7.71;77.91
71976;BME280;68326;52.124;5.424;2024-02-23T09:18:35;98900.56;;;7.68;77.65
71976;BME280;68326;52.124;5.424;2024-02-23T09:21:02;98909.50;;;7.64;78.30
71976;BME280;68326;52.124;5.424;2024-02-23T09:23:28;98913.28;;;7.71;78.19
71976;BME280;68326;52.124;5.424;2024-02-23T09:25:55;98899.44;;;7.72;78.03
71976;BME280;68326;52.124;5.424;2024-02-23T09:28:22;98910.38;;;7.75;78.02
71976;BME280;68326;52.124;5.424;2024-02-23T09:30:48;98908.63;;;7.76;77.78
71976;BME280;68326;52.124;5.424;2024-02-23T09:33:15;98908.22;;;7.82;77.77
71976;BME280;68326;52.124;5.424;2024-02-23T09:35:42;98909.66;;;7.86;77.85
71976;BME280;68326;52.124;5.424;2024-02-23T09:38:08;98913.16;;;7.85;78.43
71976;BME280;68326;52.124;5.424;2024-02-23T09:40:35;98912.25;;;7.86;78.07
71976;BME280;68326;52.124;5.424;2024-02-23T09:43:03;98924.47;;;7.84;77.70
71976;BME280;68326;52.124;5.424;2024-02-23T09:45:31;98917.28;;;7.88;77.84
71976;BME280;68326;52.124;5.424;2024-02-23T09:47:58;98916.38;;;7.89;78.04
71976;BME280;68326;52.124;5.424;2024-02-23T09:50:27;98925.19;;;7.86;78.17
71976;BME280;68326;52.124;5.424;2024-02-23T09:52:56;98933.88;;;7.85;78.08
71976;BME280;68326;52.124;5.424;2024-02-23T09:55:24;98935.75;;;7.83;78.57
71976;BME280;68326;52.124;5.424;2024-02-23T09:57:52;98936.47;;;7.85;78.83
71976;BME280;68326;52.124;5.424;2024-02-23T10:00:23;98942.59;;;7.84;79.43
71976;BME280;68326;52.124;5.424;2024-02-23T10:02:50;98935.97;;;7.80;79.56
71976;BME280;68326;52.124;5.424;2024-02-23T10:05:17;98950.47;;;7.83;78.98
71976;BME280;68326;52.124;5.424;2024-02-23T10:07:44;98936.88;;;7.92;79.35
71976;BME280;68326;52.124;5.424;2024-02-23T10:10:12;98937.97;;;8.01;79.16
71976;BME280;68326;52.124;5.424;2024-02-23T10:12:38;98928.22;;;8.04;79.22
71976;BME280;68326;52.124;5.424;2024-02-23T10:15:06;98938.16;;;8.10;78.27
71976;BME280;68326;52.124;5.424;2024-02-23T10:17:33;98941.38;;;8.14;78.98
71976;BME280;68326;52.124;5.424;2024-02-23T10:20:02;98951.84;;;8.12;78.76
71976;BME280;68326;52.124;5.424;2024-02-23T10:22:31;98938.44;;;8.19;79.07
71976;BME280;68326;52.124;5.424;2024-02-23T10:24:58;98954.31;;;8.14;78.21
71976;BME280;68326;52.124;5.424;2024-02-23T10:27:26;98947.56;;;8.11;79.26
71976;BME280;68326;52.124;5.424;2024-02-23T10:29:52;98947.88;;;8.20;79.39
71976;BME280;68326;52.124;5.424;2024-02-23T10:32:20;98956.16;;;8.25;78.94
71976;BME280;68326;52.124;5.424;2024-02-23T10:34:52;98956.47;;;8.20;78.77
71976;BME280;68326;52.124;5.424;2024-02-23T10:37:21;98966.00;;;8.20;79.14
71976;BME280;68326;52.124;5.424;2024-02-23T10:39:51;98970.88;;;8.11;79.07
71976;BME280;68326;52.124;5.424;2024-02-23T10:42:21;98968.19;;;8.13;79.16
71976;BME280;68326;52.124;5.424;2024-02-23T10:44:52;98981.88;;;8.15;79.48
71976;BME280;68326;52.124;5.424;2024-02-23T10:47:20;98976.69;;;8.15;79.25
71976;BME280;68326;52.124;5.424;2024-02-23T10:49:48;98976.91;;;8.12;79.21
71976;BME280;68326;52.124;5.424;2024-02-23T10:52:15;98989.66;;;8.15;79.86
71976;BME280;68326;52.124;5.424;2024-02-23T10:54:46;98988.50;;;8.19;79.37
71976;BME280;68326;52.124;5.424;2024-02-23T10:57:13;98990.75;;;8.24;79.65
71976;BME280;68326;52.124;5.424;2024-02-23T10:59:45;98987.13;;;8.26;79.42
71976;BME280;68326;52.124;5.424;2024-02-23T11:02:13;98984.44;;;8.28;79.13
71976;BME280;68326;52.124;5.424;2024-02-23T11:04:47;98990.81;;;8.35;78.76
71976;BME280;68326;52.124;5.424;2024-02-23T11:07:19;98985.19;;;8.54;78.93
71976;BME280;68326;52.124;5.424;2024-02-23T11:09:52;98992.03;;;8.55;78.04
71976;BME280;68326;52.124;5.424;2024-02-23T11:12:23;99002.69;;;8.63;77.45
71976;BME280;68326;52.124;5.424;2024-02-23T11:14:51;98982.09;;;8.73;77.82
71976;BME280;68326;52.124;5.424;2024-02-23T11:17:19;98997.38;;;8.89;76.84
71976;BME280;68326;52.124;5.424;2024-02-23T11:19:51;98992.91;;;8.91;76.42
71976;BME280;68326;52.124;5.424;2024-02-23T11:22:30;98994.31;;;8.95;77.14
71976;BME280;68326;52.124;5.424;2024-02-23T11:25:06;98994.19;;;8.96;75.63
71976;BME280;68326;52.124;5.424;2024-02-23T11:27:35;98996.22;;;9.04;76.57
71976;BME280;68326;52.124;5.424;2024-02-23T11:30:08;98998.81;;;9.04;76.03
71976;BME280;68326;52.124;5.424;2024-02-23T11:35:11;99012.41;;;9.08;76.09
71976;BME280;68326;52.124;5.424;2024-02-23T11:37:48;98992.56;;;9.07;74.91
71976;BME280;68326;52.124;5.424;2024-02-23T11:40:17;98983.72;;;9.09;75.52
71976;BME280;68326;52.124;5.424;2024-02-23T11:42:44;98989.78;;;9.10;74.45
71976;BME280;68326;52.124;5.424;2024-02-23T11:45:10;98989.94;;;9.31;75.12
71976;BME280;68326;52.124;5.424;2024-02-23T11:47:37;98997.50;;;9.45;74.12
71976;BME280;68326;52.124;5.424;2024-02-23T11:50:09;99007.31;;;9.53;74.32
71976;BME280;68326;52.124;5.424;2024-02-23T11:52:37;99012.97;;;9.47;73.83
71976;BME280;68326;52.124;5.424;2024-02-23T11:55:05;99011.19;;;9.47;73.80
71976;BME280;68326;52.124;5.424;2024-02-23T11:57:33;99008.03;;;9.55;73.74
71976;BME280;68326;52.124;5.424;2024-02-23T12:00:13;99000.59;;;9.62;73.39
71976;BME280;68326;52.124;5.424;2024-02-23T12:02:39;99012.25;;;9.56;72.92
71976;BME280;68326;52.124;5.424;2024-02-23T12:05:07;99005.53;;;9.42;72.76
71976;BME280;68326;52.124;5.424;2024-02-23T12:07:34;99022.50;;;9.35;73.17
71976;BME280;68326;52.124;5.424;2024-02-23T12:10:01;99017.19;;;9.36;72.95
71976;BME280;68326;52.124;5.424;2024-02-23T12:12:30;99016.63;;;9.33;73.69
71976;BME280;68326;52.124;5.424;2024-02-23T12:14:57;99018.97;;;9.36;73.39
71976;BME280;68326;52.124;5.424;2024-02-23T12:17:25;99015.66;;;9.34;73.43
71976;BME280;68326;52.124;5.424;2024-02-23T12:20:00;99014.25;;;9.41;73.45
71976;BME280;68326;52.124;5.424;2024-02-23T12:22:27;99018.97;;;9.36;72.58
71976;BME280;68326;52.124;5.424;2024-02-23T12:24:57;99009.09;;;9.52;72.60
71976;BME280;68326;52.124;5.424;2024-02-23T12:27:24;99010.63;;;9.55;72.18
71976;BME280;68326;52.124;5.424;2024-02-23T12:29:55;99012.63;;;9.63;72.55
71976;BME280;68326;52.124;5.424;2024-02-23T12:32:21;99016.44;;;9.70;72.27
71976;BME280;68326;52.124;5.424;2024-02-23T12:34:49;99021.63;;;9.70;71.22
71976;BME280;68326;52.124;5.424;2024-02-23T12:37:16;99010.75;;;9.76;72.07
71976;BME280;68326;52.124;5.424;2024-02-23T12:39:46;99024.94;;;9.83;71.26
71976;BME280;68326;52.124;5.424;2024-02-23T12:42:13;99020.78;;;9.80;71.56
71976;BME280;68326;52.124;5.424;2024-02-23T12:44:39;99017.50;;;9.78;71.21
71976;BME280;68326;52.124;5.424;2024-02-23T12:47:06;99018.91;;;9.83;71.72
71976;BME280;68326;52.124;5.424;2024-02-23T12:49:32;99026.34;;;9.87;70.58
71976;BME280;68326;52.124;5.424;2024-02-23T12:51:59;99033.06;;;9.90;70.28
71976;BME280;68326;52.124;5.424;2024-02-23T12:54:25;99029.06;;;10.08;70.73
71976;BME280;68326;52.124;5.424;2024-02-23T12:56:52;99031.44;;;10.34;69.47
71976;BME280;68326;52.124;5.424;2024-02-23T12:59:18;99030.94;;;10.17;69.48
71976;BME280;68326;52.124;5.424;2024-02-23T13:01:45;99026.47;;;10.08;69.77
71976;BME280;68326;52.124;5.424;2024-02-23T13:04:14;99049.13;;;10.17;69.36
71976;BME280;68326;52.124;5.424;2024-02-23T13:06:41;99042.66;;;10.12;67.86
71976;BME280;68326;52.124;5.424;2024-02-23T13:09:08;99039.09;;;10.13;68.52
71976;BME280;68326;52.124;5.424;2024-02-23T13:11:38;99052.69;;;10.16;68.81
71976;BME280;68326;52.124;5.424;2024-02-23T13:14:05;99045.47;;;10.09;68.89